createdAt,value
2023-01-07T00:03:58.643Z,23.87
2023-01-07T00:09:03.661Z,20.77
2023-01-07T00:14:09.783Z,23.63
2023-01-07T00:19:15.606Z,22.70
2023-01-07T00:24:19.083Z,19.67
2023-01-07T00:29:21.980Z,20.17
2023-01-07T00:34:25.339Z,23.37
2023-01-07T00:39:28.135Z,24.97
2023-01-07T00:44:31.637Z,20.13
2023-01-07T00:49:34.743Z,24.87
2023-01-07T00:54:37.662Z,17.47
2023-01-07T00:59:40.597Z,27.87
2023-01-07T01:04:43.784Z,31.67
2023-01-07T01:09:46.652Z,22.83
2023-01-07T01:14:49.653Z,26.57
2023-01-07T01:19:52.557Z,20.43
2023-01-07T01:24:55.303Z,15.47
2023-01-07T01:29:59.501Z,23.60
2023-01-07T01:35:02.453Z,19.17
2023-01-07T01:40:07.333Z,20.40
2023-01-07T01:45:14.292Z,21.50
2023-01-07T01:50:50.519Z,16.50
2023-01-07T01:56:03.303Z,16.80
2023-01-07T02:01:06.437Z,21.27
2023-01-07T02:06:21.021Z,13.43
2023-01-07T02:11:57.682Z,21.73
2023-01-07T02:17:17.605Z,10.57
2023-01-07T02:22:57.345Z,16.70
2023-01-07T02:28:41.969Z,19.17
2023-01-07T02:34:09.139Z,18.07
2023-01-07T02:39:13.930Z,20.60
2023-01-07T02:44:41.657Z,29.20
2023-01-07T02:49:48.179Z,20.97
2023-01-07T02:55:19.494Z,19.83
2023-01-07T03:00:48.124Z,29.87
2023-01-07T03:06:24.671Z,18.20
2023-01-07T03:11:39.244Z,21.13
2023-01-07T03:16:54.278Z,17.93
2023-01-07T03:22:00.061Z,20.07
2023-01-07T03:27:06.382Z,24.87
2023-01-07T03:32:27.833Z,20.67
2023-01-07T03:37:32.465Z,23.15
2023-01-07T03:42:42.138Z,26.93
2023-01-07T03:47:49.605Z,28.23
2023-01-07T03:52:52.641Z,29.93
2023-01-07T03:57:57.074Z,23.37
2023-01-07T04:02:59.974Z,21.90
2023-01-07T04:08:02.950Z,23.53
2023-01-07T04:13:05.999Z,26.17
2023-01-07T04:18:08.948Z,31.60
2023-01-07T04:23:11.855Z,24.40
2023-01-07T04:28:15.377Z,21.63
2023-01-07T04:33:18.280Z,20.37
2023-01-07T04:38:21.328Z,27.20
2023-01-07T04:43:24.423Z,26.30
2023-01-07T04:48:27.413Z,21.47
2023-01-07T04:53:30.450Z,24.10
2023-01-07T04:58:33.443Z,29.10
2023-01-07T05:03:36.373Z,27.53
2023-01-07T05:08:39.130Z,22.73
2023-01-07T05:13:42.070Z,31.90
2023-01-07T05:18:45.419Z,27.43
2023-01-07T05:23:48.354Z,30.27
2023-01-07T05:28:51.279Z,20.93
2023-01-07T05:33:54.256Z,18.73
2023-01-07T05:38:57.178Z,28.73
2023-01-07T05:44:00.269Z,29.77
2023-01-07T05:49:03.339Z,25.57
2023-01-07T05:54:07.404Z,23.00
2023-01-07T05:59:10.350Z,29.00
2023-01-07T06:04:13.362Z,28.20
2023-01-07T06:09:16.275Z,31.30
2023-01-07T06:14:19.000Z,33.33
2023-01-07T06:19:23.087Z,35.40
2023-01-07T06:24:26.035Z,33.07
2023-01-07T06:29:29.946Z,39.50
2023-01-07T06:34:32.916Z,45.23
2023-01-07T06:39:35.863Z,27.87
2023-01-07T06:44:38.678Z,32.37
2023-01-07T06:49:41.584Z,26.43
2023-01-07T06:54:45.203Z,55.47
2023-01-07T06:59:49.363Z,33.33
2023-01-07T07:04:52.893Z,34.03
2023-01-07T07:09:55.859Z,49.53
2023-01-07T07:14:58.778Z,35.63
2023-01-07T07:20:01.900Z,42.50
2023-01-07T07:25:05.802Z,43.73
2023-01-07T07:30:09.439Z,34.10
2023-01-07T07:35:13.324Z,46.63
2023-01-07T07:40:16.386Z,38.90
2023-01-07T07:45:19.906Z,33.73
2023-01-07T07:50:23.399Z,34.50
2023-01-07T07:55:26.779Z,27.57
2023-01-07T08:00:29.619Z,33.43
2023-01-07T08:05:32.843Z,31.40
2023-01-07T08:10:36.094Z,22.80
2023-01-07T08:15:39.052Z,27.83
2023-01-07T08:20:42.050Z,18.07
2023-01-07T08:25:45.009Z,26.93
2023-01-07T08:30:48.566Z,24.43
2023-01-07T08:35:51.488Z,27.80
2023-01-07T08:40:54.765Z,23.43
2023-01-07T08:45:57.702Z,24.53
2023-01-07T08:51:00.410Z,26.20
2023-01-07T08:56:03.689Z,23.60
2023-01-07T09:01:08.616Z,21.20
2023-01-07T09:06:11.919Z,21.20
2023-01-07T09:11:15.410Z,20.10
2023-01-07T09:16:18.548Z,18.77
2023-01-07T09:21:21.296Z,17.80
2023-01-07T09:26:24.351Z,16.63
2023-01-07T09:31:27.228Z,15.67
2023-01-07T09:36:31.127Z,21.93
2023-01-07T09:41:58.687Z,20.93
2023-01-07T09:47:03.495Z,17.70
2023-01-07T09:52:22.690Z,20.20
2023-01-07T09:57:27.921Z,17.73
2023-01-07T10:03:16.727Z,18.70
2023-01-07T10:08:55.694Z,18.97
2023-01-07T10:14:22.659Z,20.15
2023-01-07T10:19:33.235Z,16.63
2023-01-07T10:24:43.405Z,16.90
2023-01-07T10:29:59.121Z,15.87
2023-01-07T10:35:03.816Z,17.23
2023-01-07T10:40:12.857Z,11.87
2023-01-07T10:45:43.994Z,15.67
2023-01-07T10:51:07.902Z,14.17
2023-01-07T10:56:32.547Z,16.17
2023-01-07T11:01:44.081Z,11.77
2023-01-07T11:07:07.358Z,14.37
2023-01-07T11:12:58.734Z,14.30
2023-01-07T11:18:25.595Z,17.03
2023-01-07T11:23:42.788Z,15.50
2023-01-07T11:28:56.565Z,13.73
2023-01-07T11:34:02.244Z,14.90
2023-01-07T11:39:19.682Z,12.83
2023-01-07T11:44:23.272Z,13.60
2023-01-07T11:49:29.048Z,13.87
2023-01-07T11:54:32.814Z,12.83
2023-01-07T11:59:35.817Z,14.50
2023-01-07T12:04:40.373Z,15.13
2023-01-07T12:09:46.024Z,17.97
2023-01-07T12:14:49.580Z,15.60
2023-01-07T12:20:52.474Z,16.77
2023-01-07T12:26:21.106Z,13.70
2023-01-07T12:32:09.034Z,14.53
2023-01-07T12:37:35.198Z,13.30
2023-01-07T12:42:50.985Z,14.67
2023-01-07T12:48:04.530Z,16.53
2023-01-07T12:53:31.913Z,12.53
2023-01-07T12:58:44.820Z,13.83
2023-01-07T13:04:40.098Z,13.70
2023-01-07T13:09:57.138Z,17.87
2023-01-07T13:15:08.998Z,13.97
2023-01-07T13:20:17.764Z,13.60
2023-01-07T13:25:33.833Z,12.10
2023-01-07T13:31:04.838Z,12.57
2023-01-07T13:36:14.412Z,13.97
2023-01-07T13:41:37.389Z,12.80
2023-01-07T13:46:44.733Z,10.47
2023-01-07T13:51:47.759Z,11.07
2023-01-07T13:56:51.030Z,11.83
2023-01-07T14:02:20.155Z,11.83
2023-01-07T14:07:23.935Z,11.43
2023-01-07T14:12:51.685Z,11.93
2023-01-07T14:18:38.221Z,13.30
2023-01-07T14:24:02.565Z,13.30
2023-01-07T14:29:48.507Z,16.80
2023-01-07T14:35:10.537Z,13.17
2023-01-07T14:40:26.351Z,18.17
2023-01-07T14:45:41.432Z,15.67
2023-01-07T14:51:06.210Z,15.63
2023-01-07T14:56:31.628Z,31.27
2023-01-07T15:02:15.030Z,27.50
2023-01-07T15:07:24.503Z,45.67
2023-01-07T15:12:53.624Z,25.17
2023-01-07T15:17:56.993Z,19.40
2023-01-07T15:23:44.218Z,19.30
2023-01-07T15:29:53.837Z,19.43
2023-01-07T15:34:58.086Z,19.60
2023-01-07T15:40:01.847Z,17.90
2023-01-07T15:45:05.708Z,18.97
2023-01-07T15:50:30.336Z,16.67
2023-01-07T15:55:41.360Z,17.90
2023-01-07T16:00:44.874Z,17.05
2023-01-07T16:05:48.602Z,21.13
2023-01-07T16:11:22.107Z,22.30
2023-01-07T16:16:26.238Z,23.67
2023-01-07T16:21:39.405Z,25.20
2023-01-07T16:26:57.234Z,30.20
2023-01-07T16:32:01.366Z,39.27
2023-01-07T16:37:11.282Z,46.60
2023-01-07T16:42:20.173Z,38.83
2023-01-07T16:47:33.973Z,36.80
2023-01-07T16:52:36.886Z,33.93
2023-01-07T16:57:43.007Z,32.40
2023-01-07T17:03:00.690Z,25.63
2023-01-07T17:08:18.887Z,33.83
2023-01-07T17:13:24.830Z,31.90
2023-01-07T17:18:29.476Z,33.47
2023-01-07T17:23:39.857Z,29.57
2023-01-07T17:28:55.033Z,39.10
2023-01-07T17:33:58.233Z,41.77
2023-01-07T17:39:01.378Z,36.93
2023-01-07T17:44:06.675Z,33.73
2023-01-07T17:49:11.716Z,40.60
2023-01-07T17:54:25.557Z,42.80
2023-01-07T17:59:30.432Z,39.47
2023-01-07T18:04:33.467Z,41.17
2023-01-07T18:09:37.017Z,39.83
2023-01-07T18:14:40.131Z,38.93
2023-01-07T18:19:44.067Z,39.33
2023-01-07T18:24:49.057Z,37.83
2023-01-07T18:29:52.006Z,29.97
2023-01-07T18:34:54.727Z,30.53
2023-01-07T18:40:02.211Z,31.27
2023-01-07T18:45:07.330Z,32.20
2023-01-07T18:50:10.335Z,30.87
2023-01-07T18:55:13.732Z,35.87
2023-01-07T19:00:19.831Z,32.67
2023-01-07T19:05:22.837Z,35.53
2023-01-07T19:10:26.736Z,41.53
2023-01-07T19:15:29.867Z,36.60
2023-01-07T19:20:33.074Z,42.03
2023-01-07T19:25:35.871Z,41.30
2023-01-07T19:30:38.985Z,44.50
2023-01-07T19:35:41.935Z,40.93
2023-01-07T19:40:45.852Z,39.37
2023-01-07T19:45:56.576Z,37.60
2023-01-07T19:51:02.204Z,36.20
2023-01-07T19:56:11.057Z,39.00
2023-01-07T20:01:18.082Z,36.00
2023-01-07T20:06:25.885Z,33.37
2023-01-07T20:11:28.528Z,35.27
2023-01-07T20:16:31.704Z,36.87
2023-01-07T20:21:34.472Z,39.27
2023-01-07T20:26:38.312Z,41.60
2023-01-07T20:31:41.344Z,40.40
2023-01-07T20:36:44.309Z,41.97
2023-01-07T20:41:47.144Z,49.67
2023-01-07T20:46:50.571Z,43.07
2023-01-07T20:51:54.203Z,42.27
2023-01-07T20:56:57.140Z,44.60
2023-01-07T21:02:00.986Z,47.10
2023-01-07T21:07:04.097Z,44.87
2023-01-07T21:12:07.225Z,46.67
2023-01-07T21:17:11.066Z,49.80
2023-01-07T21:22:14.016Z,39.50
2023-01-07T21:27:17.212Z,48.07
2023-01-07T21:32:20.055Z,49.97
2023-01-07T21:37:23.159Z,46.70
2023-01-07T21:42:26.065Z,48.60
2023-01-07T21:47:30.005Z,49.03
2023-01-07T21:52:35.328Z,54.20
2023-01-07T21:57:38.643Z,49.43
2023-01-07T22:02:41.514Z,56.00
2023-01-07T22:07:44.547Z,55.77
2023-01-07T22:12:47.550Z,44.87
2023-01-07T22:17:50.548Z,58.87
2023-01-07T22:22:53.712Z,48.60
2023-01-07T22:28:02.857Z,43.37
2023-01-07T22:33:05.897Z,40.93
2023-01-07T22:38:11.784Z,44.07
2023-01-07T22:43:18.298Z,40.47
2023-01-07T22:48:27.550Z,43.77
2023-01-07T22:53:30.800Z,57.57
2023-01-07T22:58:33.734Z,38.37
2023-01-07T23:03:37.238Z,42.93
2023-01-07T23:08:41.049Z,46.93
2023-01-07T23:13:43.745Z,45.90
2023-01-07T23:18:47.957Z,50.77
2023-01-07T23:23:50.962Z,37.97
2023-01-07T23:28:54.175Z,43.70
2023-01-07T23:33:57.133Z,47.83
2023-01-07T23:39:00.106Z,39.57
2023-01-07T23:44:03.140Z,49.80
2023-01-07T23:49:06.092Z,57.23
2023-01-07T23:54:09.533Z,54.20
2023-01-07T23:59:13.280Z,60.30
